Time;durP1;ratioP1;P1;durP2;ratioP2;P2;SDS_P1;SDS_P2;PMS_P1;PMS_P2;Temp;Humidity;BMP_temperature;BMP_pressure;BME280_temperature;BME280_humidity;BME280_pressure;Samples;Min_cycle;Max_cycle;Signal;HPM_P1;HPM_P2
2021/01/01 00:01:47;;;;;;;95.77;44.80;;;;;;;5.46;84.45;99742.48;1708394;82;22760;-72
2021/01/01 00:04:15;;;;;;;93.85;48.17;;;;;;;5.43;84.33;99744.84;1704001;84;21106;-71
2021/01/01 00:06:49;;;;;;;84.15;43.75;;;;;;;5.40;84.28;99751.61;1704365;84;21586;-73
2021/01/01 00:09:18;;;;;;;87.57;53.08;;;;;;;5.38;84.23;99752.16;1686832;84;21091;-70
2021/01/01 00:11:50;;;;;;;61.35;38.63;;;;;;;5.36;84.15;99751.91;1704639;82;21196;-71
2021/01/01 00:14:20;;;;;;;59.50;40.60;;;;;;;5.30;84.06;99747.06;1729648;83;22087;-71
2021/01/01 00:16:48;;;;;;;53.95;36.88;;;;;;;5.21;83.92;99748.55;1729558;83;21113;-71
2021/01/01 00:19:17;;;;;;;52.95;34.92;;;;;;;5.12;83.80;99746.55;1729570;83;21070;-71
2021/01/01 00:21:45;;;;;;;49.75;33.25;;;;;;;5.05;83.73;99743.97;1729943;81;21106;-70
2021/01/01 00:24:13;;;;;;;46.95;30.05;;;;;;;4.96;83.64;99748.50;1701148;83;21185;-71
2021/01/01 00:26:41;;;;;;;53.45;32.53;;;;;;;4.87;83.60;99744.70;1729573;83;21587;-71
2021/01/01 00:29:08;;;;;;;61.18;37.93;;;;;;;4.80;83.59;99746.05;1727777;83;21081;-71
2021/01/01 00:31:36;;;;;;;53.38;35.43;;;;;;;4.77;83.59;99748.87;1681643;84;21356;-72
2021/01/01 00:34:04;;;;;;;41.48;27.87;;;;;;;4.74;83.60;99741.23;1673114;82;21070;-71
2021/01/01 00:36:32;;;;;;;45.45;30.70;;;;;;;4.69;83.57;99737.59;1699380;84;21137;-72
2021/01/01 00:39:00;;;;;;;48.42;31.65;;;;;;;4.66;83.54;99736.97;1725191;81;21905;-72
2021/01/01 00:41:29;;;;;;;49.80;33.18;;;;;;;4.60;83.55;99725.95;1699553;83;21113;-72
2021/01/01 00:43:59;;;;;;;50.35;32.48;;;;;;;4.58;83.52;99729.61;1725183;83;21363;-72
2021/01/01 00:46:28;;;;;;;50.73;33.58;;;;;;;4.54;83.50;99727.67;1699410;84;21110;-72
2021/01/01 00:48:58;;;;;;;54.15;35.52;;;;;;;4.51;83.48;99726.55;1724891;82;21125;-72
2021/01/01 00:51:32;;;;;;;81.82;49.33;;;;;;;4.47;83.46;99726.86;1707811;84;22114;-72
2021/01/01 00:54:01;;;;;;;107.10;61.18;;;;;;;4.42;83.40;99725.83;1725234;83;21168;-72
2021/01/01 00:56:29;;;;;;;100.02;58.05;;;;;;;4.36;83.33;99723.62;1678770;83;21089;-72
2021/01/01 00:58:58;;;;;;;73.25;46.25;;;;;;;4.30;83.30;99721.39;1709609;81;21082;-72
2021/01/01 01:01:27;;;;;;;67.95;40.70;;;;;;;4.26;83.25;99714.23;1699662;83;21093;-71
2021/01/01 01:03:56;;;;;;;87.65;52.62;;;;;;;4.23;83.25;99709.17;1725194;83;22076;-72
2021/01/01 01:06:27;;;;;;;86.22;54.18;;;;;;;4.23;83.25;99703.11;1699756;83;21169;-71
2021/01/01 01:08:55;;;;;;;58.20;39.18;;;;;;;4.17;83.22;99708.28;1725310;81;21209;-70
2021/01/01 01:11:28;;;;;;;72.03;52.05;;;;;;;4.13;83.15;99709.39;1707674;84;21118;-71
2021/01/01 01:13:56;;;;;;;54.08;39.40;;;;;;;4.12;83.21;99705.57;1707783;84;21075;-72
2021/01/01 01:16:27;;;;;;;48.87;31.97;;;;;;;4.10;83.22;99710.90;1707646;84;22092;-72
2021/01/01 01:18:55;;;;;;;47.48;34.63;;;;;;;4.08;83.24;99703.63;1707633;84;21072;-71
2021/01/01 01:21:23;;;;;;;41.00;27.13;;;;;;;4.09;83.28;99699.24;1707960;82;21119;-71
2021/01/01 01:23:51;;;;;;;42.90;27.93;;;;;;;4.10;83.34;99685.23;1707898;84;21554;-71
2021/01/01 01:26:19;;;;;;;39.65;27.37;;;;;;;4.12;83.41;99687.27;1707918;84;21165;-71
2021/01/01 01:28:47;;;;;;;38.33;22.98;;;;;;;4.16;83.59;99685.70;1707532;84;22025;-71
2021/01/01 01:31:16;;;;;;;38.95;26.60;;;;;;;4.20;83.69;99668.03;1705299;84;21091;-71
2021/01/01 01:33:44;;;;;;;46.42;28.20;;;;;;;4.27;83.83;99688.92;1705212;84;21119;-71
2021/01/01 01:36:13;;;;;;;45.52;29.25;;;;;;;4.30;83.94;99690.86;1705383;84;21138;-71
2021/01/01 01:38:40;;;;;;;53.58;29.63;;;;;;;4.36;84.02;99688.33;1705073;83;21024;-72
2021/01/01 01:41:08;;;;;;;39.90;25.12;;;;;;;4.40;84.06;99680.64;1685912;84;21923;-71
2021/01/01 01:43:36;;;;;;;40.17;27.32;;;;;;;4.44;84.07;99682.58;1722107;83;21098;-72
2021/01/01 01:46:04;;;;;;;38.90;27.35;;;;;;;4.46;84.07;99678.95;1720918;83;21372;-71
2021/01/01 01:48:36;;;;;;;40.92;26.55;;;;;;;4.49;84.04;99674.81;1707757;83;21130;-71
2021/01/01 01:51:09;;;;;;;39.60;25.00;;;;;;;4.51;84.01;99674.71;1707866;84;21051;-71
2021/01/01 01:53:45;;;;;;;34.78;24.27;;;;;;;4.51;84.00;99675.55;1681593;84;22095;-71
2021/01/01 01:56:13;;;;;;;41.10;26.00;;;;;;;4.52;83.98;99672.47;1707850;84;21137;-71
2021/01/01 01:58:41;;;;;;;36.88;25.30;;;;;;;4.52;83.97;99675.91;1707868;84;21145;-71
2021/01/01 02:01:11;;;;;;;37.95;24.65;;;;;;;4.53;83.95;99674.14;1681321;84;21063;-71
2021/01/01 02:03:40;;;;;;;35.83;24.10;;;;;;;4.51;83.91;99676.86;1708171;82;21149;-71
2021/01/01 02:06:09;;;;;;;40.28;25.72;;;;;;;4.51;83.86;99660.33;1707781;84;21920;-71
2021/01/01 02:08:36;;;;;;;41.95;24.87;;;;;;;4.49;83.86;99666.97;1707861;84;21067;-71
2021/01/01 02:11:05;;;;;;;39.42;25.15;;;;;;;4.46;83.80;99656.72;1707839;84;21058;-71
2021/01/01 02:13:35;;;;;;;37.30;25.82;;;;;;;4.47;83.74;99661.48;1671113;85;21592;-71
2021/01/01 02:16:04;;;;;;;33.92;22.85;;;;;;;4.45;83.69;99650.30;1679399;85;21132;-71
2021/01/01 02:18:37;;;;;;;29.55;21.25;;;;;;;4.43;83.66;99644.30;1677443;85;22110;-71
2021/01/01 02:21:07;;;;;;;33.65;23.50;;;;;;;4.41;83.63;99642.27;1698931;82;21169;-71
2021/01/01 02:23:36;;;;;;;32.45;20.92;;;;;;;4.38;83.59;99638.08;1707815;84;21064;-71
2021/01/01 02:26:04;;;;;;;36.53;24.23;;;;;;;4.36;83.60;99637.34;1707794;84;21106;-71
2021/01/01 02:28:32;;;;;;;37.98;25.55;;;;;;;4.34;83.58;99637.89;1707865;84;21110;-71
2021/01/01 02:31:00;;;;;;;32.17;22.50;;;;;;;4.31;83.55;99643.33;1702645;84;22907;-70
2021/01/01 02:33:28;;;;;;;39.33;26.55;;;;;;;4.28;83.53;99638.31;1702432;84;21487;-71
2021/01/01 02:35:56;;;;;;;37.48;25.37;;;;;;;4.23;83.52;99641.21;1702436;84;21087;-71
2021/01/01 02:38:24;;;;;;;37.35;27.00;;;;;;;4.20;83.51;99646.64;1700282;84;21149;-71
2021/01/01 02:40:52;;;;;;;38.80;26.15;;;;;;;4.16;83.48;99645.66;1701584;82;21102;-71
2021/01/01 02:43:19;;;;;;;36.45;25.57;;;;;;;4.14;83.49;99643.58;1702410;84;22158;-71
2021/01/01 02:45:47;;;;;;;31.45;21.33;;;;;;;4.12;83.50;99646.77;1702444;84;21185;-71
2021/01/01 02:48:19;;;;;;;34.98;24.57;;;;;;;4.10;83.47;99638.20;1704455;84;21071;-71
2021/01/01 02:50:49;;;;;;;34.98;24.90;;;;;;;4.08;83.46;99633.55;1704300;84;22937;-71
2021/01/01 02:53:16;;;;;;;39.25;27.27;;;;;;;4.05;83.47;99637.17;1704673;82;21497;-71
2021/01/01 02:55:44;;;;;;;37.10;25.02;;;;;;;4.02;83.46;99626.45;1704553;84;22095;-71
2021/01/01 02:58:12;;;;;;;35.58;24.52;;;;;;;4.00;83.48;99629.64;1704226;82;21141;-71
2021/01/01 03:00:41;;;;;;;43.60;27.13;;;;;;;3.98;83.48;99621.53;1704949;82;21097;-71
2021/01/01 03:03:08;;;;;;;36.00;24.80;;;;;;;3.96;83.49;99617.72;1704545;82;21568;-71
2021/01/01 03:05:36;;;;;;;36.80;25.02;;;;;;;3.95;83.49;99615.18;1704537;84;21109;-71
2021/01/01 03:08:05;;;;;;;37.45;27.07;;;;;;;3.93;83.52;99617.89;1704669;82;21910;-70
2021/01/01 03:10:34;;;;;;;31.27;21.48;;;;;;;3.90;83.52;99618.10;1676087;85;21628;-70
2021/01/01 03:13:02;;;;;;;35.23;24.57;;;;;;;3.91;83.52;99624.16;1676182;85;21108;-71
2021/01/01 03:15:30;;;;;;;37.70;26.12;;;;;;;3.91;83.53;99625.47;1702197;82;21192;-71
2021/01/01 03:17:58;;;;;;;33.78;22.25;;;;;;;3.89;83.53;99617.73;1704465;84;21119;-71
2021/01/01 03:20:27;;;;;;;36.45;24.02;;;;;;;3.90;83.56;99614.19;1705059;82;22810;-71
2021/01/01 03:22:54;;;;;;;37.08;21.97;;;;;;;3.91;83.57;99611.10;1704454;84;21089;-71
2021/01/01 03:25:22;;;;;;;36.98;24.67;;;;;;;3.91;83.61;99616.33;1674229;84;21148;-71
2021/01/01 03:27:50;;;;;;;36.45;25.10;;;;;;;3.92;83.59;99612.30;1729609;82;21172;-71
2021/01/01 03:30:21;;;;;;;36.50;23.87;;;;;;;3.93;83.58;99610.53;1728067;81;21330;-71
2021/01/01 03:32:49;;;;;;;31.42;21.25;;;;;;;3.94;83.58;99609.12;1729148;83;23000;-71
2021/01/01 03:35:16;;;;;;;36.58;23.15;;;;;;;3.94;83.54;99612.20;1729693;81;21109;-71
2021/01/01 03:37:44;;;;;;;39.25;26.40;;;;;;;3.93;83.53;99603.53;1729549;83;21145;-70
2021/01/01 03:40:12;;;;;;;35.03;23.02;;;;;;;3.93;83.51;99597.47;1729773;81;21136;-70
2021/01/01 03:42:40;;;;;;;35.55;25.15;;;;;;;3.93;83.46;99602.69;1729765;83;21473;-71
2021/01/01 03:45:12;;;;;;;34.35;22.13;;;;;;;3.91;83.46;99600.18;1729633;81;22050;-71
2021/01/01 03:47:39;;;;;;;33.80;22.90;;;;;;;3.91;83.46;99593.65;1729741;81;21506;-71
2021/01/01 03:50:09;;;;;;;32.78;23.05;;;;;;;3.91;83.44;99594.12;1729429;83;21366;-70
2021/01/01 03:52:36;;;;;;;37.45;24.47;;;;;;;3.92;83.43;99592.71;1725966;83;21142;-71
2021/01/01 03:55:06;;;;;;;36.17;23.25;;;;;;;3.92;83.41;99586.18;1728020;83;21109;-71
2021/01/01 03:57:34;;;;;;;37.45;26.42;;;;;;;3.92;83.39;99580.95;1700508;84;23017;-71
2021/01/01 04:00:05;;;;;;;32.90;22.70;;;;;;;3.93;83.37;99585.24;1727272;83;21133;-71
2021/01/01 04:02:44;;;;;;;38.10;26.20;;;;;;;3.97;83.36;99584.13;1873341;76;29575;-71
2021/01/01 04:05:12;;;;;;;35.85;22.98;;;;;;;3.93;83.31;99587.02;1839892;78;21151;-71
2021/01/01 04:07:40;;;;;;;32.40;21.68;;;;;;;3.93;83.29;99580.48;1812004;78;22837;-72
2021/01/01 04:10:09;;;;;;;34.67;23.20;;;;;;;3.93;83.25;99581.79;1808501;78;21108;-72
2021/01/01 04:12:36;;;;;;;37.08;23.57;;;;;;;3.91;83.21;99574.06;1833883;77;21127;-72
2021/01/01 04:15:06;;;;;;;40.15;27.17;;;;;;;3.91;83.17;99573.22;1841446;78;21076;-71
2021/01/01 04:17:34;;;;;;;40.08;26.50;;;;;;;3.90;83.15;99563.23;1824519;78;21162;-71
2021/01/01 04:20:03;;;;;;;36.58;24.87;;;;;;;3.90;83.11;99563.71;1808430;78;22658;-71
2021/01/01 04:22:31;;;;;;;39.00;27.05;;;;;;;3.89;83.07;99566.80;1817663;78;21456;-71
2021/01/01 04:24:59;;;;;;;40.80;25.02;;;;;;;3.88;83.04;99554.67;1841471;78;21116;-71
2021/01/01 04:27:26;;;;;;;39.70;26.82;;;;;;;3.87;82.98;99556.92;1832205;78;21155;-71
2021/01/01 04:29:54;;;;;;;39.90;26.75;;;;;;;3.87;82.95;99553.00;1808409;78;21056;-71
2021/01/01 04:32:22;;;;;;;39.03;26.62;;;;;;;3.86;82.91;99561.78;1821485;78;21901;-71
2021/01/01 04:34:50;;;;;;;39.85;27.77;;;;;;;3.87;82.89;99571.28;1827940;78;21087;-71
2021/01/01 04:37:18;;;;;;;41.95;28.90;;;;;;;3.87;82.83;99570.45;1805710;79;21110;-71
2021/01/01 04:39:47;;;;;;;37.73;27.20;;;;;;;3.85;82.77;99560.08;1802187;79;21131;-71
2021/01/01 04:42:15;;;;;;;44.77;30.08;;;;;;;3.83;82.72;99563.27;1754806;80;21066;-70
2021/01/01 04:44:43;;;;;;;40.90;26.52;;;;;;;3.81;82.66;99576.89;1751046;82;22074;-70
2021/01/01 04:47:11;;;;;;;38.98;26.77;;;;;;;3.81;82.62;99578.67;1751607;81;21103;-71
2021/01/01 04:49:39;;;;;;;38.67;27.65;;;;;;;3.78;82.56;99578.41;1706599;82;21147;-71
2021/01/01 04:52:08;;;;;;;37.95;26.07;;;;;;;3.75;82.47;99575.97;1747672;81;21158;-70
2021/01/01 04:54:36;;;;;;;37.05;25.72;;;;;;;3.71;82.42;99579.73;1743192;81;21187;-71
2021/01/01 04:57:04;;;;;;;35.38;24.90;;;;;;;3.68;82.35;99579.93;1724276;82;22085;-71
2021/01/01 04:59:33;;;;;;;41.00;27.58;;;;;;;3.66;82.33;99567.41;1750709;82;21362;-71
2021/01/01 05:02:02;;;;;;;34.23;24.63;;;;;;;3.64;82.31;99567.52;1756191;80;21076;-71
2021/01/01 05:04:30;;;;;;;39.45;26.55;;;;;;;3.63;82.33;99568.45;1760054;81;21564;-72
2021/01/01 05:06:57;;;;;;;39.35;27.30;;;;;;;3.64;82.26;99571.44;1760186;80;21127;-72
2021/01/01 05:09:25;;;;;;;35.88;24.90;;;;;;;3.62;82.22;99565.95;1704900;83;22061;-71
2021/01/01 05:12:09;;;;;;;40.95;27.27;;;;;;;3.63;82.18;99563.70;1729960;83;21527;-72
2021/01/01 05:14:38;;;;;;;35.95;25.35;;;;;;;3.60;82.17;99571.27;1752644;80;21579;-72
2021/01/01 05:17:06;;;;;;;39.50;27.60;;;;;;;3.59;82.10;99572.68;1759646;81;21187;-72
2021/01/01 05:19:41;;;;;;;31.75;23.85;;;;;;;3.57;82.06;99581.92;1759612;80;21057;-72
2021/01/01 05:22:12;;;;;;;35.05;24.15;;;;;;;3.57;82.04;99581.92;1759576;81;22061;-72
2021/01/01 05:24:49;;;;;;;39.30;25.60;;;;;;;3.57;82.05;99578.00;1759454;81;21132;-72
2021/01/01 05:27:17;;;;;;;37.50;26.95;;;;;;;3.58;82.04;99585.38;1759675;81;21151;-71
2021/01/01 05:29:55;;;;;;;39.00;26.33;;;;;;;3.58;82.04;99582.29;1759575;81;21045;-71
2021/01/01 05:32:27;;;;;;;37.98;27.42;;;;;;;3.59;82.00;99587.05;1738567;81;21041;-70
2021/01/01 05:34:57;;;;;;;39.55;26.55;;;;;;;3.61;82.00;99587.78;1759593;81;22062;-71
2021/01/01 05:37:33;;;;;;;35.73;24.72;;;;;;;3.64;82.00;99586.27;1751609;80;21373;-71
2021/01/01 05:40:08;;;;;;;37.90;24.72;;;;;;;3.65;81.98;99587.47;1729544;83;21590;-71
2021/01/01 05:42:38;;;;;;;35.83;24.10;;;;;;;3.67;81.94;99586.09;1756992;80;21077;-70
2021/01/01 05:45:16;;;;;;;39.55;27.05;;;;;;;3.70;81.93;99584.58;1742178;81;21084;-71
2021/01/01 05:48:03;;;;;;;37.50;26.57;;;;;;;3.73;81.93;99591.74;1741655;81;21500;-71
2021/01/01 05:50:32;;;;;;;43.65;27.02;;;;;;;3.78;81.86;99594.55;1758873;81;21089;-71
2021/01/01 05:53:17;;;;;;;39.92;25.90;;;;;;;3.83;81.86;99591.99;1759465;81;21128;-70
2021/01/01 05:55:46;;;;;;;41.92;25.70;;;;;;;3.89;81.86;99591.61;1759593;81;21361;-71
2021/01/01 05:58:25;;;;;;;39.38;25.72;;;;;;;3.95;81.88;99593.81;1759664;81;21089;-71
2021/01/01 06:00:57;;;;;;;41.50;24.37;;;;;;;4.02;81.83;99597.71;1759322;81;22049;-72
2021/01/01 06:03:32;;;;;;;41.23;26.12;;;;;;;4.10;81.83;99591.99;1759375;81;21120;-70
2021/01/01 06:06:04;;;;;;;48.48;29.02;;;;;;;4.16;81.76;99594.22;1759310;81;21096;-71
2021/01/01 06:08:31;;;;;;;42.67;26.48;;;;;;;4.22;81.72;99585.12;1759695;81;21428;-71
2021/01/01 06:11:05;;;;;;;44.50;26.73;;;;;;;4.27;81.68;99580.44;1759478;80;21124;-71
2021/01/01 06:13:35;;;;;;;50.23;29.55;;;;;;;4.30;81.63;99575.00;1743001;81;22973;-71
2021/01/01 06:16:05;;;;;;;52.95;28.65;;;;;;;4.35;81.58;99577.33;1729325;81;21100;-70
2021/01/01 06:18:34;;;;;;;41.00;25.85;;;;;;;4.37;81.50;99569.73;1745684;81;21058;-71
2021/01/01 06:21:06;;;;;;;41.15;23.75;;;;;;;4.41;81.45;99570.36;1759556;81;21064;-71
2021/01/01 06:23:39;;;;;;;41.60;22.05;;;;;;;4.49;81.30;99564.16;1759904;81;21097;-71
2021/01/01 06:26:08;;;;;;;43.90;25.12;;;;;;;4.59;81.02;99568.66;1759306;81;22907;-71
2021/01/01 06:28:37;;;;;;;42.80;23.25;;;;;;;4.74;80.76;99564.18;1759487;81;21163;-70
2021/01/01 06:31:05;;;;;;;40.95;24.35;;;;;;;4.86;80.49;99558.09;1759584;80;21100;-71
2021/01/01 06:33:33;;;;;;;49.40;29.55;;;;;;;4.96;80.25;99561.39;1759462;81;21075;-73
2021/01/01 06:36:02;;;;;;;39.85;24.18;;;;;;;5.05;79.82;99570.75;1738791;81;21361;-72
2021/01/01 06:38:40;;;;;;;36.35;22.22;;;;;;;5.13;79.60;99565.83;1750952;81;22036;-72
2021/01/01 06:41:16;;;;;;;33.48;19.90;;;;;;;5.18;79.37;99561.56;1759355;81;21214;-72
2021/01/01 06:43:54;;;;;;;47.23;26.30;;;;;;;5.22;79.21;99561.73;1740149;81;21103;-71
2021/01/01 06:46:38;;;;;;;43.55;23.22;;;;;;;5.25;79.20;99568.52;1759617;81;21048;-71
2021/01/01 06:49:13;;;;;;;28.90;18.40;;;;;;;5.26;79.22;99574.13;1759639;81;21139;-71
2021/01/01 06:51:40;;;;;;;28.67;18.73;;;;;;;5.24;79.21;99566.37;1732025;81;22118;-71
2021/01/01 06:54:14;;;;;;;26.85;16.80;;;;;;;5.24;79.11;99564.23;1733858;81;21115;-71
2021/01/01 06:56:44;;;;;;;36.73;20.30;;;;;;;5.25;79.05;99558.05;1754550;81;21060;-71
2021/01/01 06:59:14;;;;;;;27.60;17.70;;;;;;;5.27;79.08;99565.31;1759463;81;21040;-71
2021/01/01 07:01:45;;;;;;;24.92;15.95;;;;;;;5.27;79.13;99573.17;1757615;81;21130;-73
2021/01/01 07:04:13;;;;;;;26.05;17.45;;;;;;;5.29;79.14;99577.82;1750443;82;21880;-72
2021/01/01 07:06:42;;;;;;;30.12;18.20;;;;;;;5.30;79.05;99587.34;1750299;82;21090;-71
2021/01/01 07:09:10;;;;;;;25.12;16.57;;;;;;;5.32;78.98;99582.39;1750410;81;21124;-71
2021/01/01 07:11:40;;;;;;;19.62;14.40;;;;;;;5.36;78.92;99575.98;1750464;81;21172;-72
2021/01/01 07:14:10;;;;;;;24.60;15.98;;;;;;;5.39;78.94;99582.30;1750421;81;21575;-73
2021/01/01 07:16:41;;;;;;;22.27;16.07;;;;;;;5.41;78.96;99580.91;1750452;80;22095;-71
2021/01/01 07:19:09;;;;;;;25.82;17.90;;;;;;;5.45;79.03;99579.73;1750430;80;21496;-71
2021/01/01 07:21:38;;;;;;;26.62;19.15;;;;;;;5.46;79.14;99583.55;1750403;80;21108;-71
2021/01/01 07:24:07;;;;;;;23.65;15.45;;;;;;;5.49;79.24;99581.17;1750436;82;21061;-71
2021/01/01 07:26:35;;;;;;;19.87;14.65;;;;;;;5.52;79.38;99577.53;1750478;82;21089;-72
2021/01/01 07:29:03;;;;;;;24.27;15.48;;;;;;;5.52;79.53;99575.74;1750301;80;21840;-71
2021/01/01 07:31:32;;;;;;;23.62;16.32;;;;;;;5.54;79.68;99583.02;1750380;82;21072;-72
2021/01/01 07:34:09;;;;;;;21.90;15.08;;;;;;;5.53;79.80;99573.48;1750500;81;21481;-71
2021/01/01 07:36:36;;;;;;;25.55;18.25;;;;;;;5.55;79.98;99574.20;1750440;80;21179;-72
2021/01/01 07:39:06;;;;;;;28.47;17.27;;;;;;;5.55;80.13;99576.83;1750461;81;21055;-72
2021/01/01 07:41:34;;;;;;;23.65;15.48;;;;;;;5.56;80.29;99574.56;1750442;80;22118;-72
2021/01/01 07:44:03;;;;;;;23.10;16.12;;;;;;;5.56;80.49;99569.80;1750373;82;21125;-72
2021/01/01 07:46:32;;;;;;;22.02;15.58;;;;;;;5.58;80.71;99567.91;1750401;82;21057;-72
2021/01/01 07:49:01;;;;;;;24.52;15.28;;;;;;;5.60;80.91;99577.82;1750438;80;21128;-72
2021/01/01 07:51:30;;;;;;;23.85;15.50;;;;;;;5.61;81.07;99568.54;1750463;82;21116;-72
2021/01/01 07:53:59;;;;;;;27.50;17.07;;;;;;;5.62;81.26;99587.23;1747975;80;22067;-72
2021/01/01 07:56:27;;;;;;;23.75;15.40;;;;;;;5.63;81.42;99579.73;1752855;81;21079;-73
2021/01/01 07:58:55;;;;;;;24.18;15.40;;;;;;;5.65;81.48;99597.96;1753161;81;21075;-71
2021/01/01 08:01:25;;;;;;;22.45;14.87;;;;;;;5.68;81.57;99591.18;1721279;82;21089;-72
2021/01/01 08:03:54;;;;;;;25.88;15.13;;;;;;;5.69;81.72;99588.48;1764850;80;21064;-72
2021/01/01 08:06:21;;;;;;;28.47;18.07;;;;;;;5.71;81.80;99597.53;1767086;81;21487;-71
2021/01/01 08:08:50;;;;;;;27.22;17.92;;;;;;;5.73;81.93;99594.33;1767023;81;21123;-71
2021/01/01 08:11:18;;;;;;;28.98;16.55;;;;;;;5.73;81.98;99591.23;1767392;80;21121;-72
2021/01/01 08:13:47;;;;;;;24.87;16.85;;;;;;;5.77;82.00;99584.45;1767411;81;21469;-72
2021/01/01 08:16:16;;;;;;;24.70;15.93;;;;;;;5.78;82.12;99595.28;1767435;81;21077;-72
2021/01/01 08:18:44;;;;;;;29.23;17.98;;;;;;;5.80;82.20;99597.35;1767480;81;22865;-72
2021/01/01 08:21:12;;;;;;;39.10;22.07;;;;;;;5.80;82.27;99604.73;1727914;81;21100;-69
2021/01/01 08:23:52;;;;;;;27.13;16.82;;;;;;;5.82;82.28;99596.76;1737322;82;21074;-70
2021/01/01 08:26:20;;;;;;;26.77;16.57;;;;;;;5.84;82.38;99611.42;1765361;80;22735;-71
2021/01/01 08:28:50;;;;;;;23.55;15.83;;;;;;;5.85;82.44;99599.15;1767080;81;21578;-71
2021/01/01 08:31:20;;;;;;;25.70;16.50;;;;;;;5.86;82.49;99597.72;1739927;81;23351;-70
2021/01/01 08:33:53;;;;;;;23.83;16.48;;;;;;;5.88;82.52;99610.23;1767273;80;21222;-70
2021/01/01 08:36:31;;;;;;;31.33;21.47;;;;;;;5.89;82.58;99609.80;1767379;80;21121;-71
2021/01/01 08:39:11;;;;;;;29.02;17.32;;;;;;;5.91;82.63;99603.52;1767293;81;21276;-71
2021/01/01 08:41:45;;;;;;;26.02;16.57;;;;;;;5.94;82.62;99615.55;1767335;81;21107;-71
2021/01/01 08:44:14;;;;;;;30.50;19.50;;;;;;;5.96;82.73;99620.20;1767081;80;22174;-72
2021/01/01 08:46:42;;;;;;;30.25;19.60;;;;;;;5.99;82.76;99612.98;1767307;80;21088;-70
2021/01/01 08:49:19;;;;;;;25.88;16.97;;;;;;;6.02;82.80;99610.13;1767556;81;21103;-70
2021/01/01 08:51:50;;;;;;;27.42;18.00;;;;;;;6.06;82.80;99606.79;1767512;81;21159;-71
2021/01/01 08:54:27;;;;;;;28.73;19.73;;;;;;;6.09;82.81;99605.75;1763967;80;21117;-69
2021/01/01 08:56:59;;;;;;;31.93;21.55;;;;;;;6.14;82.86;99607.55;1767624;80;22140;-69
2021/01/01 08:59:28;;;;;;;33.42;23.18;;;;;;;6.17;82.84;99604.69;1767490;81;21164;-70
2021/01/01 09:01:57;;;;;;;38.88;30.05;;;;;;;6.20;82.84;99607.11;1767445;80;21185;-70
2021/01/01 09:04:28;;;;;;;37.53;31.42;;;;;;;6.23;82.84;99611.64;1764617;80;21073;-69
2021/01/01 09:07:02;;;;;;;29.40;19.42;;;;;;;6.27;82.84;99610.93;1761872;81;21053;-71
2021/01/01 09:09:32;;;;;;;29.70;19.45;;;;;;;6.29;82.82;99615.14;1764501;80;22061;-70
2021/01/01 09:12:15;;;;;;;25.55;16.65;;;;;;;6.32;82.80;99620.63;1764498;81;21419;-70
2021/01/01 09:14:53;;;;;;;25.70;15.03;;;;;;;6.35;82.77;99619.08;1749898;81;21078;-70
2021/01/01 09:17:25;;;;;;;26.40;17.42;;;;;;;6.41;82.79;99611.23;1755614;80;21157;-69
2021/01/01 09:20:05;;;;;;;25.15;16.00;;;;;;;6.46;82.75;99614.34;1755348;81;21389;-69
2021/01/01 09:22:35;;;;;;;22.70;13.95;;;;;;;6.51;82.73;99618.78;1756147;81;22127;-71
2021/01/01 09:25:23;;;;;;;24.07;13.75;;;;;;;6.57;82.70;99613.92;1756097;80;21072;-70
2021/01/01 09:27:53;;;;;;;21.65;14.25;;;;;;;6.63;82.62;99614.41;1755709;80;21066;-69
2021/01/01 09:30:25;;;;;;;19.02;12.73;;;;;;;6.69;82.59;99607.39;1756085;81;21064;-69
2021/01/01 09:32:58;;;;;;;24.12;15.15;;;;;;;6.75;82.54;99601.66;1755929;81;21060;-69
2021/01/01 09:35:27;;;;;;;30.32;24.00;;;;;;;6.81;82.44;99605.98;1756284;80;22072;-69
2021/01/01 09:38:00;;;;;;;24.07;16.82;;;;;;;6.87;82.33;99605.52;1741856;81;21517;-70
2021/01/01 09:40:31;;;;;;;22.85;13.80;;;;;;;6.93;82.26;99608.13;1734138;81;21120;-69
2021/01/01 09:43:03;;;;;;;19.02;13.70;;;;;;;6.98;82.21;99607.32;1734086;82;21154;-71
2021/01/01 09:45:32;;;;;;;20.25;13.62;;;;;;;7.03;82.13;99607.78;1753366;81;21109;-71
2021/01/01 09:48:01;;;;;;;19.67;12.95;;;;;;;7.07;82.06;99607.09;1764512;80;22055;-68
2021/01/01 09:50:30;;;;;;;18.87;12.05;;;;;;;7.09;81.99;99606.02;1764238;81;21596;-68
2021/01/01 09:52:57;;;;;;;16.95;11.05;;;;;;;7.13;81.92;99613.16;1764458;80;21105;-68
2021/01/01 09:55:26;;;;;;;18.17;12.13;;;;;;;7.15;81.73;99610.80;1763435;81;21061;-67
2021/01/01 09:57:54;;;;;;;23.40;14.45;;;;;;;7.19;81.65;99608.77;1753649;81;21078;-67
2021/01/01 10:00:23;;;;;;;23.70;13.75;;;;;;;7.22;81.63;99605.05;1753367;81;22156;-68
2021/01/01 10:02:51;;;;;;;23.40;14.75;;;;;;;7.26;81.58;99602.56;1756279;80;21111;-68
2021/01/01 10:05:20;;;;;;;30.43;16.57;;;;;;;7.29;81.42;99600.52;1759468;80;21184;-69
2021/01/01 10:07:48;;;;;;;27.02;15.75;;;;;;;7.31;81.30;99598.61;1758321;81;21563;-71
2021/01/01 10:10:16;;;;;;;25.08;14.70;;;;;;;7.35;81.25;99605.79;1758850;81;21436;-70
2021/01/01 10:12:44;;;;;;;27.37;19.05;;;;;;;7.37;81.11;99602.08;1758982;80;23321;-70
2021/01/01 10:15:12;;;;;;;26.62;17.35;;;;;;;7.39;80.99;99608.52;1732003;81;21123;-72
2021/01/01 10:17:40;;;;;;;20.80;12.80;;;;;;;7.40;80.90;99602.30;1731783;81;21222;-70
2021/01/01 10:20:10;;;;;;;20.20;13.50;;;;;;;7.40;80.80;99604.45;1758881;81;21184;-70
2021/01/01 10:22:38;;;;;;;20.40;12.35;;;;;;;7.40;80.66;99606.25;1758804;80;21164;-70
2021/01/01 10:25:07;;;;;;;16.70;11.30;;;;;;;7.41;80.60;99603.50;1746573;81;21902;-71
2021/01/01 10:27:35;;;;;;;19.80;12.68;;;;;;;7.41;80.57;99596.93;1758833;80;21164;-71
2021/01/01 10:30:05;;;;;;;16.27;11.73;;;;;;;7.43;80.55;99598.12;1758753;81;21144;-71
2021/01/01 10:32:33;;;;;;;23.18;13.65;;;;;;;7.42;80.48;99593.34;1758467;81;21203;-70
2021/01/01 10:35:01;;;;;;;22.60;13.70;;;;;;;7.43;80.48;99591.09;1758754;81;21151;-72
2021/01/01 10:37:29;;;;;;;19.23;12.35;;;;;;;7.44;80.51;99585.37;1745647;81;23672;-70
2021/01/01 10:39:58;;;;;;;16.02;11.22;;;;;;;7.46;80.48;99587.39;1758964;81;21143;-74
2021/01/01 10:42:27;;;;;;;19.92;13.03;;;;;;;7.49;80.44;99587.61;1758789;81;21135;-74
2021/01/01 10:44:54;;;;;;;20.45;12.55;;;;;;;7.49;80.34;99590.23;1758946;80;21643;-72
2021/01/01 10:47:22;;;;;;;20.50;13.88;;;;;;;7.51;80.32;99590.95;1759006;80;21646;-72
2021/01/01 10:49:50;;;;;;;21.52;13.35;;;;;;;7.52;80.29;99591.30;1758924;81;21895;-70
2021/01/01 10:52:17;;;;;;;17.45;11.63;;;;;;;7.52;80.17;99588.67;1758838;81;21606;-71
2021/01/01 10:54:46;;;;;;;17.00;10.95;;;;;;;7.53;80.09;99585.09;1758822;81;21144;-70
2021/01/01 10:57:14;;;;;;;22.00;13.10;;;;;;;7.54;80.05;99581.53;1758897;81;21131;-70
2021/01/01 10:59:42;;;;;;;26.52;14.95;;;;;;;7.56;80.03;99584.87;1757963;80;21451;-71
2021/01/01 11:02:10;;;;;;;20.92;13.03;;;;;;;7.57;79.98;99583.91;1757142;81;22143;-71
2021/01/01 11:04:38;;;;;;;18.57;11.53;;;;;;;7.58;79.91;99595.61;1752668;81;21563;-70
2021/01/01 11:07:06;;;;;;;18.73;10.75;;;;;;;7.59;79.78;99591.19;1751156;82;21106;-69
2021/01/01 11:09:34;;;;;;;22.73;12.07;;;;;;;7.57;79.61;99589.99;1752313;81;21132;-72
2021/01/01 11:12:04;;;;;;;21.70;13.38;;;;;;;7.56;79.58;99590.13;1753232;81;21045;-69
2021/01/01 12:26:50;;;;;;;48.78;26.90;;;;;;;7.76;79.24;99635.36;1723858;82;21124;-74
2021/01/01 12:29:18;;;;;;;57.48;28.83;;;;;;;7.73;79.26;99636.94;1750579;80;21109;-74
2021/01/01 12:31:46;;;;;;;75.17;36.93;;;;;;;7.68;79.30;99634.66;1750560;82;22701;-72
2021/01/01 12:34:13;;;;;;;64.32;32.55;;;;;;;7.66;79.32;99639.20;1750561;81;21093;-74
2021/01/01 12:36:42;;;;;;;70.08;33.85;;;;;;;7.65;79.38;99640.64;1720248;82;21899;-72
2021/01/01 12:39:10;;;;;;;82.85;41.70;;;;;;;7.61;79.46;99643.14;1750315;82;21117;-76
2021/01/01 12:41:39;;;;;;;76.47;39.65;;;;;;;7.60;79.53;99650.66;1750584;82;21192;-73
2021/01/01 12:44:07;;;;;;;65.95;34.98;;;;;;;7.57;79.61;99651.75;1750437;80;21062;-72
2021/01/01 12:46:35;;;;;;;69.30;35.17;;;;;;;7.55;79.69;99651.52;1732276;82;21115;-71
2021/01/01 12:49:03;;;;;;;57.10;30.55;;;;;;;7.52;79.79;99656.52;1717344;83;21842;-72